Time;durP1;ratioP1;P1;durP2;ratioP2;P2;SDS_P1;SDS_P2;PMS_P1;PMS_P2;Temp;Humidity;BMP_temperature;BMP_pressure;BME280_temperature;BME280_humidity;BME280_pressure;Samples;Min_cycle;Max_cycle;Signal;HPM_P1;HPM_P2
2021/07/23 00:00:47;;;;;;;6.90;4.82;;;;;;;15.39;62.33;100830.84;10468299;28;20192;-73
2021/07/23 00:05:51;;;;;;;8.45;5.28;;;;;;;15.37;62.60;100831.00;10466671;28;20611;-73
2021/07/23 00:10:54;;;;;;;8.93;5.47;;;;;;;15.29;62.59;100830.81;10467680;28;20209;-73
2021/07/23 00:15:57;;;;;;;9.05;5.22;;;;;;;15.41;62.65;100826.13;10449420;28;20312;-73
2021/07/23 00:21:02;;;;;;;7.50;4.93;;;;;;;15.50;62.04;100830.69;10467422;28;20185;-73
2021/07/23 00:26:10;;;;;;;8.55;5.07;;;;;;;15.43;62.22;100825.00;10467372;28;20673;-73
2021/07/23 00:31:13;;;;;;;7.05;4.75;;;;;;;15.38;62.39;100823.72;10467333;28;20653;-73
2021/07/23 00:36:18;;;;;;;7.30;5.28;;;;;;;15.30;62.42;100823.56;10467501;28;20216;-73
2021/07/23 00:41:21;;;;;;;7.57;4.97;;;;;;;15.22;62.95;100818.84;10466879;28;20610;-73
2021/07/23 00:46:30;;;;;;;9.48;4.75;;;;;;;15.23;62.65;100828.69;10466688;28;20701;-73
2021/07/23 00:51:35;;;;;;;7.03;4.63;;;;;;;15.16;62.75;100824.84;10448688;28;20210;-73
2021/07/23 00:56:38;;;;;;;5.72;4.72;;;;;;;15.08;62.97;100822.84;10448674;28;20286;-73
2021/07/23 01:01:42;;;;;;;7.88;4.93;;;;;;;14.91;63.47;100819.00;10448394;28;20197;-73
2021/07/23 01:06:47;;;;;;;7.43;4.75;;;;;;;14.90;63.77;100817.31;10465827;28;20205;-73
2021/07/23 01:11:50;;;;;;;8.25;5.35;;;;;;;14.82;64.11;100814.47;10466338;28;20228;-73
2021/07/23 01:16:59;;;;;;;8.32;5.13;;;;;;;14.72;64.01;100813.59;10447766;28;20221;-74
2021/07/23 01:22:07;;;;;;;7.10;5.60;;;;;;;14.60;64.18;100810.19;10473256;28;20563;-72
2021/07/23 01:27:12;;;;;;;6.18;5.07;;;;;;;14.60;64.48;100812.88;10474240;28;20758;-75
2021/07/23 01:32:35;;;;;;;7.93;5.60;;;;;;;14.58;64.27;100806.75;10455029;28;20280;-72
2021/07/23 01:37:41;;;;;;;9.25;5.10;;;;;;;14.52;64.74;100812.72;10454140;28;20229;-72
2021/07/23 01:42:47;;;;;;;7.70;5.63;;;;;;;14.37;65.28;100796.88;10454593;28;20242;-72
2021/07/23 01:47:53;;;;;;;8.18;5.88;;;;;;;14.36;65.31;100789.75;10453709;28;20217;-72
2021/07/23 01:52:56;;;;;;;9.55;5.78;;;;;;;14.28;65.58;100797.69;10454328;28;20233;-72
2021/07/23 01:58:05;;;;;;;8.98;6.07;;;;;;;14.23;65.53;100793.69;10453678;28;20217;-72
2021/07/23 02:03:08;;;;;;;8.60;6.10;;;;;;;14.20;65.85;100789.44;10453728;28;20673;-73
2021/07/23 02:08:11;;;;;;;9.15;6.85;;;;;;;14.22;65.59;100792.84;10471486;28;20211;-71
2021/07/23 02:13:16;;;;;;;8.02;5.40;;;;;;;14.12;65.75;100791.97;10453663;28;20227;-73
2021/07/23 02:18:21;;;;;;;9.80;5.97;;;;;;;13.82;66.67;100782.94;10453447;28;20245;-73
2021/07/23 02:23:27;;;;;;;8.02;6.00;;;;;;;13.85;67.14;100781.78;10453720;28;20196;-72
2021/07/23 02:28:31;;;;;;;11.82;6.20;;;;;;;13.71;67.08;100789.28;10454601;28;20247;-72
2021/07/23 02:33:36;;;;;;;8.68;6.45;;;;;;;13.57;67.63;100780.66;10453294;28;20655;-72
2021/07/23 02:38:50;;;;;;;8.30;6.07;;;;;;;13.57;68.02;100778.81;10452552;28;20256;-72
2021/07/23 02:43:55;;;;;;;8.95;6.22;;;;;;;13.61;67.77;100787.50;10452518;28;20567;-72
2021/07/23 02:48:58;;;;;;;9.60;6.57;;;;;;;13.51;68.03;100775.81;10470538;28;20297;-72
2021/07/23 02:54:06;;;;;;;9.80;6.32;;;;;;;13.54;68.16;100778.22;10451939;28;20227;-73
2021/07/23 02:59:11;;;;;;;9.45;6.47;;;;;;;13.59;67.90;100781.38;10470446;28;20236;-73
2021/07/23 03:04:18;;;;;;;12.57;6.97;;;;;;;13.41;68.32;100782.00;10451444;28;20213;-73
2021/07/23 03:09:21;;;;;;;8.10;6.65;;;;;;;13.31;68.82;100772.97;10469523;28;20209;-72
2021/07/23 03:14:26;;;;;;;8.75;6.55;;;;;;;13.07;69.68;100770.53;10450923;28;20229;-72
2021/07/23 03:19:40;;;;;;;12.07;6.53;;;;;;;12.94;70.16;100773.41;10451277;28;20315;-73
2021/07/23 03:24:45;;;;;;;11.48;6.78;;;;;;;13.14;69.69;100766.34;10450891;28;20696;-74
2021/07/23 03:30:09;;;;;;;11.18;6.75;;;;;;;13.13;69.18;100764.59;10445321;28;20248;-73
2021/07/23 03:35:13;;;;;;;12.65;8.07;;;;;;;13.10;69.22;100751.38;10469000;28;20185;-74
2021/07/23 03:40:22;;;;;;;12.13;7.63;;;;;;;12.98;70.08;100753.31;10450383;28;20595;-73
2021/07/23 03:45:29;;;;;;;10.88;7.18;;;;;;;12.92;69.82;100748.44;10468065;28;20272;-73
2021/07/23 03:50:41;;;;;;;11.65;7.22;;;;;;;12.75;70.60;100751.69;10450996;28;20595;-73
2021/07/23 03:55:47;;;;;;;9.60;7.10;;;;;;;12.73;70.83;100750.97;10449968;28;20543;-73
2021/07/23 04:01:11;;;;;;;13.82;8.13;;;;;;;12.83;70.43;100741.13;10450066;28;20197;-73
2021/07/23 04:06:20;;;;;;;14.45;8.07;;;;;;;12.92;70.04;100748.44;10449709;28;20235;-73
2021/07/23 04:11:28;;;;;;;18.52;8.07;;;;;;;12.75;70.65;100749.00;10469360;28;20297;-73
2021/07/23 04:16:37;;;;;;;13.85;7.82;;;;;;;12.78;70.28;100741.53;10468391;28;20274;-72
2021/07/23 04:21:40;;;;;;;13.30;7.55;;;;;;;12.84;70.31;100745.53;10449704;28;20280;-74
2021/07/23 04:26:57;;;;;;;13.90;8.80;;;;;;;12.91;70.41;100741.31;10449105;28;20224;-73
2021/07/23 04:32:02;;;;;;;15.77;8.82;;;;;;;13.00;70.25;100743.25;10467546;28;20209;-73
2021/07/23 04:37:05;;;;;;;12.90;8.73;;;;;;;13.11;69.87;100747.72;10449409;28;20585;-73
2021/07/23 04:42:27;;;;;;;11.75;8.07;;;;;;;12.96;70.15;100740.94;10468320;28;20634;-73
2021/07/23 04:47:32;;;;;;;10.13;7.82;;;;;;;13.11;69.97;100745.03;10467013;28;20232;-73
2021/07/23 04:52:37;;;;;;;14.30;9.18;;;;;;;13.19;69.79;100744.34;10450460;28;20272;-73
2021/07/23 04:58:00;;;;;;;12.80;9.55;;;;;;;13.44;69.31;100743.13;10432648;28;20233;-73
2021/07/23 05:03:04;;;;;;;14.75;9.57;;;;;;;13.49;68.91;100744.41;10474581;28;20674;-73
2021/07/23 05:08:09;;;;;;;15.85;9.23;;;;;;;13.48;68.93;100744.53;10473851;28;20205;-73
2021/07/23 05:13:12;;;;;;;11.82;8.90;;;;;;;13.59;68.58;100741.75;10474218;28;20223;-73
2021/07/23 05:18:18;;;;;;;12.95;9.57;;;;;;;13.73;68.47;100743.22;10473882;28;20205;-73
2021/07/23 05:23:21;;;;;;;15.27;9.50;;;;;;;13.86;68.36;100737.59;10474339;28;20198;-73
2021/07/23 05:28:24;;;;;;;16.38;9.18;;;;;;;13.59;69.49;100740.91;10473181;28;20300;-73
2021/07/23 05:33:42;;;;;;;17.50;10.23;;;;;;;13.74;69.70;100749.47;10473720;28;20217;-73
2021/07/23 05:38:44;;;;;;;13.93;10.05;;;;;;;13.96;68.35;100743.00;10472844;28;20216;-73
2021/07/23 05:43:47;;;;;;;17.42;10.75;;;;;;;14.08;68.26;100745.47;10473024;28;20649;-73
2021/07/23 05:48:52;;;;;;;13.77;9.23;;;;;;;14.20;67.62;100740.78;10454874;28;20243;-73
2021/07/23 05:53:54;;;;;;;17.77;9.13;;;;;;;14.38;67.91;100743.69;10472557;28;20562;-73
2021/07/23 05:58:57;;;;;;;17.50;10.13;;;;;;;14.55;67.51;100748.41;10472010;28;20204;-73
2021/07/23 06:04:02;;;;;;;14.82;9.70;;;;;;;14.68;67.26;100750.84;10470993;28;20217;-73
2021/07/23 06:09:05;;;;;;;14.00;9.23;;;;;;;14.95;67.07;100747.41;10472206;28;20561;-73
2021/07/23 06:14:07;;;;;;;12.73;9.00;;;;;;;15.22;66.18;100743.09;10471498;28;20209;-73
2021/07/23 06:19:12;;;;;;;11.82;8.15;;;;;;;15.45;65.25;100736.38;10472270;28;20210;-73
2021/07/23 06:24:15;;;;;;;12.88;7.75;;;;;;;15.71;64.75;100746.53;10471481;28;20193;-73
2021/07/23 06:29:18;;;;;;;10.45;7.43;;;;;;;15.83;62.77;100747.19;10454940;23;20761;-75
2021/07/23 06:34:22;;;;;;;9.25;6.40;;;;;;;16.11;61.90;100748.03;10394118;28;20221;-75
2021/07/23 06:39:25;;;;;;;12.00;6.15;;;;;;;16.26;61.35;100749.25;10432346;28;20589;-74
2021/07/23 06:44:30;;;;;;;9.30;5.28;;;;;;;16.50;60.80;100745.94;10435656;28;20273;-74
2021/07/23 06:49:34;;;;;;;19.67;5.95;;;;;;;16.75;59.76;100751.59;10432960;28;20214;-75
2021/07/23 06:54:38;;;;;;;8.38;5.18;;;;;;;17.07;59.17;100744.75;10432562;28;20225;-76
2021/07/23 06:59:41;;;;;;;6.72;4.78;;;;;;;17.40;57.91;100745.88;10431791;28;20249;-75
2021/07/23 07:04:45;;;;;;;8.02;5.15;;;;;;;17.63;57.44;100741.56;10435324;28;20197;-75
2021/07/23 07:09:48;;;;;;;7.60;5.10;;;;;;;17.79;56.77;100740.78;10414508;28;20241;-75
2021/07/23 07:14:51;;;;;;;6.53;4.18;;;;;;;17.97;55.70;100746.19;10430698;28;20210;-75
2021/07/23 07:19:57;;;;;;;9.43;4.47;;;;;;;18.17;55.77;100746.75;10431095;28;20222;-75
2021/07/23 07:25:00;;;;;;;5.70;4.05;;;;;;;18.33;55.00;100749.53;10430537;28;20787;-75
2021/07/23 07:30:05;;;;;;;5.80;3.78;;;;;;;18.37;54.78;100744.59;10431756;28;20249;-74
2021/07/23 07:35:10;;;;;;;7.45;4.68;;;;;;;18.64;53.96;100750.75;10412204;28;20240;-75
2021/07/23 07:40:14;;;;;;;7.82;4.20;;;;;;;18.89;53.69;100747.06;10430375;28;20214;-75
2021/07/23 07:45:17;;;;;;;8.75;4.03;;;;;;;19.04;51.96;100743.66;10430343;28;20682;-74
2021/07/23 07:50:21;;;;;;;6.05;3.88;;;;;;;19.25;51.74;100746.69;10430545;28;20212;-75
2021/07/23 07:55:25;;;;;;;5.35;3.75;;;;;;;19.55;50.39;100744.25;10429401;28;20582;-75
2021/07/23 08:00:28;;;;;;;8.55;4.43;;;;;;;19.90;50.59;100740.25;10431479;28;20233;-75
2021/07/23 08:05:33;;;;;;;5.78;3.90;;;;;;;20.12;49.76;100749.50;10430653;28;20605;-75
2021/07/23 08:10:36;;;;;;;6.22;3.70;;;;;;;20.43;49.71;100746.81;10429405;28;20233;-75
2021/07/23 08:15:40;;;;;;;7.43;4.28;;;;;;;20.45;48.52;100746.63;10429465;28;20232;-75
2021/07/23 08:20:46;;;;;;;5.30;3.88;;;;;;;20.76;48.37;100739.25;10430236;28;20214;-75
2021/07/23 08:25:49;;;;;;;6.88;4.20;;;;;;;21.08;46.89;100734.56;10430534;28;20183;-75
2021/07/23 08:30:52;;;;;;;8.98;4.13;;;;;;;21.12;47.42;100733.16;10427896;28;20226;-75
2021/07/23 08:35:57;;;;;;;5.85;3.75;;;;;;;21.12;47.33;100724.97;10428597;28;20225;-75
2021/07/23 08:41:00;;;;;;;5.97;4.07;;;;;;;21.43;46.52;100732.16;10413454;28;20563;-75
2021/07/23 08:46:03;;;;;;;5.63;3.83;;;;;;;21.79;44.77;100718.63;10427920;28;20182;-74
2021/07/23 08:51:08;;;;;;;5.38;3.85;;;;;;;22.00;45.81;100717.84;10412656;28;20213;-74
2021/07/23 08:56:12;;;;;;;7.90;4.07;;;;;;;22.23;43.92;100711.38;10417189;28;20210;-75
2021/07/23 09:01:14;;;;;;;6.15;4.20;;;;;;;21.68;44.85;100719.06;10430695;28;20197;-75
2021/07/23 09:06:22;;;;;;;5.70;3.83;;;;;;;22.43;45.02;100714.31;10427381;28;20213;-76
2021/07/23 09:11:30;;;;;;;5.93;3.72;;;;;;;23.44;43.66;100713.13;10427673;28;20638;-75
2021/07/23 09:16:33;;;;;;;7.28;4.10;;;;;;;23.82;40.85;100711.88;10429012;28;20591;-75
2021/07/23 09:21:39;;;;;;;5.18;3.38;;;;;;;24.06;40.35;100703.13;10429782;28;20604;-76
2021/07/23 09:26:44;;;;;;;5.28;3.75;;;;;;;23.85;38.89;100690.38;10409525;28;20256;-75
2021/07/23 09:32:05;;;;;;;5.85;3.72;;;;;;;24.12;41.33;100692.38;10431434;28;20206;-75
2021/07/23 09:37:11;;;;;;;5.47;3.80;;;;;;;24.58;40.56;100692.50;10426542;28;20608;-75
2021/07/23 09:42:29;;;;;;;7.88;4.65;;;;;;;24.36;38.98;100689.06;10433997;28;20200;-75
2021/07/23 09:47:32;;;;;;;6.68;3.75;;;;;;;24.75;39.15;100685.53;10435960;28;20206;-75
2021/07/23 09:52:37;;;;;;;5.53;3.90;;;;;;;24.82;38.18;100680.06;10434138;28;20216;-75
2021/07/23 09:57:43;;;;;;;4.18;3.50;;;;;;;24.77;37.01;100674.34;10432876;28;20712;-75
2021/07/23 10:02:49;;;;;;;6.55;4.70;;;;;;;24.31;39.66;100661.38;10437331;28;20542;-75
2021/07/23 10:07:59;;;;;;;5.47;4.20;;;;;;;24.85;39.06;100656.78;10432756;28;20267;-75
2021/07/23 10:13:02;;;;;;;6.95;4.13;;;;;;;24.92;36.45;100658.47;10432978;28;20202;-75
2021/07/23 10:18:06;;;;;;;5.88;4.38;;;;;;;24.98;37.48;100656.78;10432133;28;20226;-75
2021/07/23 10:23:11;;;;;;;7.43;4.20;;;;;;;25.09;38.32;100649.81;10432832;28;20393;-75
2021/07/23 10:28:53;;;;;;;5.82;4.40;;;;;;;24.36;39.58;100649.78;10431588;28;20218;-75
2021/07/23 10:33:56;;;;;;;5.82;4.05;;;;;;;25.94;37.60;100647.03;10415767;28;20218;-75
2021/07/23 10:39:09;;;;;;;5.95;4.32;;;;;;;26.56;36.77;100647.31;10436089;28;20292;-75
2021/07/23 10:44:13;;;;;;;7.25;4.18;;;;;;;26.44;35.53;100649.91;10432086;28;20183;-75
2021/07/23 10:49:46;;;;;;;4.70;3.92;;;;;;;26.17;34.76;100632.72;10436129;28;20232;-75
2021/07/23 10:55:21;;;;;;;4.60;4.13;;;;;;;26.20;33.61;100622.09;10430719;28;20687;-75
2021/07/23 11:00:45;;;;;;;5.85;4.20;;;;;;;26.08;33.78;100633.00;10431354;28;20621;-76
2021/07/23 11:05:49;;;;;;;4.63;3.55;;;;;;;26.66;35.63;100614.59;10430851;28;20598;-74
2021/07/23 11:10:54;;;;;;;6.72;4.07;;;;;;;27.56;33.96;100619.59;10431513;28;20335;-76
2021/07/23 11:16:09;;;;;;;4.28;3.85;;;;;;;27.39;33.42;100617.44;10429974;28;20218;-75
2021/07/23 11:21:13;;;;;;;4.68;4.10;;;;;;;27.77;32.89;100607.25;10431244;28;20194;-75
2021/07/23 11:26:24;;;;;;;6.57;4.38;;;;;;;27.20;31.95;100592.88;10412319;28;20232;-76
2021/07/23 11:31:31;;;;;;;4.80;3.83;;;;;;;27.20;34.56;100590.09;10431024;28;20190;-76
2021/07/23 11:36:39;;;;;;;6.03;3.55;;;;;;;28.19;32.97;100586.03;10430720;28;20226;-76
2021/07/23 11:47:11;;;;;;;5.40;3.78;;;;;;;28.67;30.43;100579.53;9084075;32;20529;-75
2021/07/23 11:52:20;;;;;;;3.85;3.40;;;;;;;27.12;31.30;100564.50;10591880;28;20195;-75
2021/07/23 11:57:23;;;;;;;7.38;3.90;;;;;;;28.18;31.29;100559.53;10592131;28;20298;-75
2021/07/23 12:02:29;;;;;;;5.20;3.88;;;;;;;28.34;32.80;100559.91;10590796;28;20295;-75
2021/07/23 12:07:32;;;;;;;4.93;4.00;;;;;;;29.43;31.10;100553.84;10592292;28;20675;-76
2021/07/23 12:12:36;;;;;;;4.55;3.90;;;;;;;29.47;30.30;100544.81;10592326;28;20179;-75
2021/07/23 12:17:44;;;;;;;6.68;3.80;;;;;;;28.96;30.21;100538.16;10592195;28;20215;-76
2021/07/23 12:22:58;;;;;;;6.35;3.75;;;;;;;29.13;29.25;100541.09;10591166;28;20219;-76
2021/07/23 12:28:11;;;;;;;5.57;3.58;;;;;;;28.91;30.88;100540.84;10593407;22;20295;-75
2021/07/23 12:33:16;;;;;;;4.95;3.53;;;;;;;29.85;28.57;100528.69;10577295;28;20216;-75
2021/07/23 12:38:19;;;;;;;5.38;3.70;;;;;;;29.52;27.67;100514.47;10583700;28;20208;-74
2021/07/23 12:43:23;;;;;;;4.00;3.53;;;;;;;28.64;29.20;100519.25;10581794;28;20239;-75
2021/07/23 12:48:35;;;;;;;4.63;3.60;;;;;;;30.14;27.93;100505.41;10560484;28;20299;-75
2021/07/23 12:53:39;;;;;;;4.25;3.38;;;;;;;30.37;27.75;100498.00;10547605;28;20659;-76
2021/07/23 12:58:42;;;;;;;4.82;3.20;;;;;;;30.36;29.13;100504.63;10517729;28;20603;-77
2021/07/23 13:03:47;;;;;;;4.07;3.45;;;;;;;30.59;28.51;100487.81;10515583;28;20582;-77
2021/07/23 13:08:50;;;;;;;3.75;3.35;;;;;;;30.96;27.23;100476.13;10534583;28;20227;-76
2021/07/23 13:13:53;;;;;;;4.78;3.60;;;;;;;30.93;28.40;100473.88;10521561;28;20196;-76
2021/07/23 13:18:58;;;;;;;5.18;3.33;;;;;;;30.99;26.85;100475.59;10516762;28;20225;-76
2021/07/23 13:24:03;;;;;;;5.07;3.38;;;;;;;31.24;27.47;100465.94;10517483;28;20230;-76
2021/07/23 13:29:08;;;;;;;3.65;3.33;;;;;;;31.50;28.00;100459.56;10543151;28;20256;-76
2021/07/23 13:34:12;;;;;;;5.63;3.50;;;;;;;31.85;27.87;100460.22;10562198;28;20188;-76
2021/07/23 13:39:22;;;;;;;4.13;3.40;;;;;;;31.77;28.03;100459.56;10544207;28;20228;-76
2021/07/23 13:44:27;;;;;;;4.03;3.35;;;;;;;31.64;27.78;100446.09;10563300;28;20226;-75
2021/07/23 13:49:31;;;;;;;3.70;3.30;;;;;;;31.62;28.01;100447.47;10560891;28;20579;-77
2021/07/23 13:54:34;;;;;;;3.95;3.45;;;;;;;31.71;27.23;100443.97;10539860;28;20196;-77
2021/07/23 13:59:37;;;;;;;3.42;3.08;;;;;;;31.57;26.63;100437.16;10561526;28;20275;-77
2021/07/23 14:04:42;;;;;;;3.42;3.10;;;;;;;31.24;28.23;100429.88;10557985;28;20583;-77
2021/07/23 14:09:45;;;;;;;4.15;3.60;;;;;;;31.83;28.25;100421.59;10557655;28;20544;-77
2021/07/23 14:14:50;;;;;;;3.30;2.97;;;;;;;31.72;28.80;100417.03;10555653;28;20590;-75
2021/07/23 14:19:55;;;;;;;3.70;3.20;;;;;;;31.87;28.50;100408.84;10537452;28;20220;-77
2021/07/23 14:24:58;;;;;;;3.95;3.55;;;;;;;32.00;28.47;100402.81;10555207;28;20687;-76
2021/07/23 14:30:01;;;;;;;5.70;3.72;;;;;;;31.60;28.56;100403.31;10555297;28;20232;-76
2021/07/23 14:35:06;;;;;;;5.28;3.80;;;;;;;31.27;29.34;100404.41;10555137;28;20192;-77
2021/07/23 14:40:10;;;;;;;3.55;3.03;;;;;;;31.37;28.81;100395.31;10555497;28;20687;-74
2021/07/23 14:45:13;;;;;;;5.88;3.10;;;;;;;31.21;28.61;100394.31;10554700;28;20679;-77
2021/07/23 14:50:17;;;;;;;4.43;3.50;;;;;;;31.83;28.97;100391.03;10555211;28;20210;-77
2021/07/23 14:55:20;;;;;;;3.83;3.20;;;;;;;31.86;28.84;100400.78;10554401;28;20194;-77
2021/07/23 15:00:23;;;;;;;4.53;3.28;;;;;;;31.92;29.09;100392.19;10554640;28;20214;-77
2021/07/23 15:05:27;;;;;;;4.15;3.20;;;;;;;31.84;28.76;100389.91;10554076;28;20211;-76
2021/07/23 15:10:31;;;;;;;3.20;2.90;;;;;;;32.07;28.66;100391.50;10554457;28;20218;-76
2021/07/23 15:15:33;;;;;;;3.90;3.00;;;;;;;32.00;28.79;100390.88;10553604;28;20605;-76
2021/07/23 15:20:39;;;;;;;4.45;3.53;;;;;;;31.92;28.43;100378.31;10553842;28;20222;-76
2021/07/23 15:25:47;;;;;;;3.33;2.85;;;;;;;31.76;29.17;100388.50;10553540;28;20296;-76
2021/07/23 15:30:50;;;;;;;3.83;3.05;;;;;;;31.14;29.20;100388.97;10553737;28;20352;-76
2021/07/23 15:35:54;;;;;;;4.85;3.33;;;;;;;31.45;29.20;100378.19;10553617;28;20188;-75
2021/07/23 15:40:57;;;;;;;4.80;2.97;;;;;;;31.75;29.31;100370.16;10553140;28;20287;-76
2021/07/23 15:46:00;;;;;;;4.85;3.50;;;;;;;31.69;29.51;100364.84;10552719;28;20224;-75
2021/07/23 15:51:11;;;;;;;4.35;3.22;;;;;;;31.33;28.70;100370.03;10553041;28;20667;-75
2021/07/23 15:56:14;;;;;;;3.78;3.35;;;;;;;31.39;29.62;100363.44;10554848;28;20210;-75
2021/07/23 16:01:17;;;;;;;4.13;3.58;;;;;;;30.70;30.27;100361.31;10553359;28;20214;-75
2021/07/23 16:06:22;;;;;;;4.35;3.80;;;;;;;30.83;30.91;100358.13;10552593;28;20779;-74
2021/07/23 16:11:25;;;;;;;4.97;4.10;;;;;;;31.04;30.65;100352.78;10554032;28;20219;-75
2021/07/23 16:16:28;;;;;;;38.30;22.25;;;;;;;31.12;30.87;100347.59;10552354;28;20180;-74
2021/07/23 16:21:45;;;;;;;5.85;4.07;;;;;;;31.03;30.73;100357.50;10534515;28;20191;-75
2021/07/23 16:26:48;;;;;;;6.30;4.38;;;;;;;30.27;31.14;100345.47;10552398;28;20235;-76
2021/07/23 16:31:53;;;;;;;7.55;6.00;;;;;;;30.50;31.68;100338.84;10556754;28;20192;-76
2021/07/23 16:36:58;;;;;;;6.95;4.88;;;;;;;30.98;30.62;100326.13;10559105;28;20257;-75
2021/07/23 16:42:01;;;;;;;5.65;4.88;;;;;;;31.11;30.87;100326.53;10558221;28;20207;-75
2021/07/23 16:47:04;;;;;;;8.77;4.70;;;;;;;31.09;30.54;100325.94;10558832;28;20222;-76
2021/07/23 16:52:11;;;;;;;5.85;5.00;;;;;;;31.97;29.71;100317.25;10561741;28;20199;-75
2021/07/23 16:57:18;;;;;;;5.72;4.63;;;;;;;34.52;26.64;100317.81;10560866;28;20757;-75
2021/07/23 17:02:21;;;;;;;7.75;4.65;;;;;;;36.81;24.03;100309.31;10560869;28;20210;-75
2021/07/23 17:07:26;;;;;;;7.05;4.40;;;;;;;37.31;23.55;100311.63;10557919;28;20223;-75
2021/07/23 17:12:29;;;;;;;6.22;4.53;;;;;;;37.74;22.86;100302.19;10539950;28;20200;-75
2021/07/23 17:17:31;;;;;;;7.18;4.07;;;;;;;37.43;23.18;100311.97;10557590;28;20203;-75
2021/07/23 17:22:38;;;;;;;6.05;4.00;;;;;;;37.34;23.41;100311.00;10557862;28;20188;-75
2021/07/23 17:27:41;;;;;;;7.72;4.63;;;;;;;37.24;23.21;100309.19;10557308;28;20704;-75
2021/07/23 17:32:44;;;;;;;6.78;4.30;;;;;;;36.46;24.13;100299.44;10557815;28;20184;-75
2021/07/23 17:37:48;;;;;;;5.68;4.22;;;;;;;35.97;24.76;100299.72;10557489;28;20223;-75
2021/07/23 17:42:53;;;;;;;5.57;4.50;;;;;;;35.85;24.89;100286.97;10557319;28;20192;-75
2021/07/23 17:47:56;;;;;;;5.65;4.03;;;;;;;34.52;25.91;100290.75;10556512;28;20298;-75
2021/07/23 17:53:01;;;;;;;5.40;4.88;;;;;;;33.58;26.95;100293.25;10558417;28;20296;-75
2021/07/23 17:58:04;;;;;;;6.72;5.75;;;;;;;32.49;28.54;100290.56;10556214;28;20210;-75
2021/07/23 18:03:07;;;;;;;7.72;6.50;;;;;;;29.30;32.62;100290.28;10556610;28;20234;-75
2021/07/23 18:08:11;;;;;;;6.88;5.07;;;;;;;26.40;37.18;100307.22;10537680;28;20288;-75
2021/07/23 18:13:14;;;;;;;7.57;5.28;;;;;;;25.36;39.68;100298.72;10556254;28;20192;-75
2021/07/23 18:18:17;;;;;;;8.52;5.75;;;;;;;24.56;41.34;100304.69;10555547;28;20208;-74
2021/07/23 18:23:21;;;;;;;8.68;5.63;;;;;;;23.57;42.91;100298.38;10555978;28;20188;-75
2021/07/23 18:28:24;;;;;;;7.88;4.60;;;;;;;23.06;44.46;100301.69;10539799;22;20242;-72
2021/07/23 18:33:27;;;;;;;9.23;5.10;;;;;;;22.73;45.42;100302.47;10466940;28;20204;-73
2021/07/23 18:38:31;;;;;;;8.85;4.93;;;;;;;22.41;46.26;100303.19;10471368;28;20216;-73
2021/07/23 18:43:34;;;;;;;7.00;5.28;;;;;;;22.18;46.59;100301.59;10471637;28;20200;-73
2021/07/23 18:48:37;;;;;;;8.50;5.03;;;;;;;21.96;46.85;100298.09;10453179;28;20403;-73
2021/07/23 18:53:41;;;;;;;6.45;5.05;;;;;;;21.89;47.57;100295.34;10470643;28;20194;-72
2021/07/23 18:58:44;;;;;;;7.05;4.90;;;;;;;21.64;48.35;100294.09;10470546;28;20204;-74
2021/07/23 19:03:48;;;;;;;8.25;5.43;;;;;;;21.53;48.30;100289.16;10470846;28;20267;-73
2021/07/23 19:08:53;;;;;;;8.85;5.57;;;;;;;21.38;48.79;100286.53;10470041;28;20220;-74
2021/07/23 19:13:57;;;;;;;9.77;5.30;;;;;;;21.03;49.65;100286.38;10470439;28;20195;-73
2021/07/23 19:19:00;;;;;;;8.50;5.97;;;;;;;20.97;50.19;100296.19;10470237;28;20213;-73
2021/07/23 19:24:07;;;;;;;10.40;5.60;;;;;;;20.81;50.10;100296.44;10469991;28;20185;-73
2021/07/23 19:29:09;;;;;;;9.75;5.72;;;;;;;20.49;50.69;100290.44;10469593;28;20235;-73
2021/07/23 19:34:12;;;;;;;8.60;5.68;;;;;;;20.42;51.09;100286.78;10469194;28;20221;-74
2021/07/23 19:39:17;;;;;;;7.45;5.07;;;;;;;20.39;51.31;100286.34;10469664;28;20201;-73
2021/07/23 19:44:20;;;;;;;7.70;5.00;;;;;;;20.19;51.83;100286.91;10469436;28;20189;-73
2021/07/23 19:49:23;;;;;;;8.95;5.13;;;;;;;20.04;52.13;100286.03;10469831;28;20224;-72
2021/07/23 19:54:28;;;;;;;11.82;5.50;;;;;;;19.87;52.73;100285.41;10469009;28;20189;-74
2021/07/23 19:59:32;;;;;;;7.03;5.57;;;;;;;19.82;53.03;100293.28;10469330;28;20310;-73
2021/07/23 20:04:35;;;;;;;8.60;5.15;;;;;;;19.72;53.36;100289.97;10469769;28;20559;-73
2021/07/23 20:09:39;;;;;;;6.65;5.00;;;;;;;19.51;53.92;100288.81;10476639;28;20220;-72
2021/07/23 20:14:42;;;;;;;9.05;5.65;;;;;;;19.59;53.53;100280.59;10476411;28;20189;-72
2021/07/23 20:19:45;;;;;;;10.52;6.13;;;;;;;19.44;53.87;100279.66;10476282;28;20280;-72
2021/07/23 20:24:49;;;;;;;8.98;6.10;;;;;;;19.31;54.15;100277.59;10475973;28;20634;-72
2021/07/23 20:29:52;;;;;;;9.02;5.60;;;;;;;19.12;54.47;100278.94;10475905;28;20594;-73
2021/07/23 20:34:56;;;;;;;11.05;5.88;;;;;;;18.97;54.98;100276.16;10457858;28;20197;-73
2021/07/23 20:40:00;;;;;;;10.23;6.10;;;;;;;18.91;55.20;100278.78;10476032;28;20213;-73
2021/07/23 20:45:04;;;;;;;12.20;6.07;;;;;;;18.86;55.17;100278.47;10475007;28;20201;-73
2021/07/23 20:50:09;;;;;;;9.57;5.53;;;;;;;18.69;55.68;100288.59;10475185;28;20201;-72
2021/07/23 20:55:13;;;;;;;8.25;5.65;;;;;;;18.61;55.57;100275.88;10474920;28;20190;-72
2021/07/23 21:00:16;;;;;;;9.63;6.13;;;;;;;18.55;55.89;100284.75;10475098;28;20235;-73
2021/07/23 21:05:19;;;;;;;10.05;5.72;;;;;;;18.48;56.10;100286.50;10456379;28;20233;-73
2021/07/23 21:10:24;;;;;;;10.25;5.50;;;;;;;18.36;56.32;100272.44;10474708;28;20213;-72
2021/07/23 21:15:27;;;;;;;9.48;5.13;;;;;;;18.39;56.45;100279.41;10474060;28;20193;-73
2021/07/23 21:20:30;;;;;;;7.72;5.38;;;;;;;18.35;56.68;100287.09;10474467;28;20273;-72
2021/07/23 21:25:34;;;;;;;10.20;5.78;;;;;;;18.27;56.74;100285.25;10473931;28;20205;-73
2021/07/23 21:30:37;;;;;;;8.00;5.68;;;;;;;18.15;57.04;100294.81;10474068;28;20228;-72
2021/07/23 21:35:40;;;;;;;9.98;6.43;;;;;;;18.09;57.37;100290.91;10473398;28;20181;-73
2021/07/23 21:40:44;;;;;;;8.85;6.15;;;;;;;18.00;58.00;100282.97;10473651;28;20213;-71
2021/07/23 21:45:47;;;;;;;9.55;5.82;;;;;;;17.91;57.89;100279.41;10455211;28;20228;-73
2021/07/23 21:50:50;;;;;;;10.90;5.82;;;;;;;17.89;58.14;100282.31;10473314;28;20213;-73
2021/07/23 21:55:55;;;;;;;11.02;6.25;;;;;;;17.88;58.31;100280.63;10472818;28;20283;-72
2021/07/23 22:00:59;;;;;;;9.38;6.53;;;;;;;17.81;58.75;100285.03;10473362;28;20220;-72
2021/07/23 22:06:03;;;;;;;8.65;6.00;;;;;;;17.76;59.13;100282.00;10471414;28;20225;-73
2021/07/23 22:11:09;;;;;;;8.13;5.47;;;;;;;17.67;59.16;100283.88;10471594;28;20219;-72
2021/07/23 22:16:13;;;;;;;10.30;6.28;;;;;;;17.62;59.05;100275.41;10471273;28;20644;-73
2021/07/23 22:21:16;;;;;;;8.27;5.78;;;;;;;17.59;59.49;100274.91;10471222;28;20237;-73
2021/07/23 22:26:20;;;;;;;9.00;5.38;;;;;;;17.50;59.99;100268.66;10470741;28;20682;-73
2021/07/23 22:31:23;;;;;;;12.00;6.20;;;;;;;17.47;59.81;100269.00;10469931;28;20689;-73
2021/07/23 22:36:26;;;;;;;9.60;5.97;;;;;;;17.39;60.30;100264.44;10470364;28;20589;-73
2021/07/23 22:41:32;;;;;;;10.00;6.10;;;;;;;17.33;60.27;100262.38;10470667;28;20213;-74
2021/07/23 22:46:36;;;;;;;7.97;5.05;;;;;;;17.26;60.75;100261.38;10470188;28;20201;-73
2021/07/23 22:51:39;;;;;;;7.85;5.10;;;;;;;17.17;60.78;100262.41;10470550;28;20284;-73
2021/07/23 22:56:44;;;;;;;10.15;5.80;;;;;;;17.22;60.70;100263.59;10469842;28;20287;-73
2021/07/23 23:01:48;;;;;;;7.85;5.50;;;;;;;17.10;61.09;100256.78;10469939;28;20800;-73
2021/07/23 23:06:51;;;;;;;8.57;5.80;;;;;;;16.84;62.00;100251.53;10469536;28;20233;-73
2021/07/23 23:11:57;;;;;;;8.30;5.25;;;;;;;16.72;62.22;100242.84;10469685;28;20193;-74
2021/07/23 23:17:00;;;;;;;8.07;5.75;;;;;;;16.77;62.24;100237.78;10468937;28;20625;-73
2021/07/23 23:22:03;;;;;;;9.60;5.47;;;;;;;16.83;62.13;100235.41;10469530;28;20189;-74